Time;durP1;ratioP1;P1;durP2;ratioP2;P2;SDS_P1;SDS_P2;PMS_P1;PMS_P2;Temp;Humidity;BMP_temperature;BMP_pressure;BME280_temperature;BME280_humidity;BME280_pressure;Samples;Min_cycle;Max_cycle;Signal;HPM_P1;HPM_P2
2022/10/01 00:00:53;;;;;;;11.73;9.33;;;;;;;;;;5053544;28;20269;-75
2022/10/01 00:03:20;;;;;;;11.07;8.60;;;;;;;;;;5075446;28;20177;-76
2022/10/01 00:05:46;;;;;;;11.73;8.50;;;;;;;;;;5078369;28;20306;-76
2022/10/01 00:08:14;;;;;;;8.97;8.07;;;;;;;;;;5075246;28;20177;-76
2022/10/01 00:10:41;;;;;;;10.07;8.23;;;;;;;;;;5084411;28;20272;-76
2022/10/01 00:13:07;;;;;;;8.60;7.80;;;;;;;;;;5067563;28;20192;-76
2022/10/01 00:15:34;;;;;;;9.90;8.67;;;;;;;;;;5086191;28;20246;-76
2022/10/01 00:18:00;;;;;;;10.50;8.20;;;;;;;;;;5080990;28;20205;-76
2022/10/01 00:20:27;;;;;;;11.53;8.43;;;;;;;;;;5072752;28;20211;-76
2022/10/01 00:22:53;;;;;;;13.87;9.07;;;;;;;;;;5082234;28;20173;-76
2022/10/01 00:25:19;;;;;;;10.90;8.50;;;;;;;;;;5068128;28;20181;-76
2022/10/01 00:27:45;;;;;;;11.33;8.70;;;;;;;;;;5065591;28;20652;-76
2022/10/01 00:30:11;;;;;;;10.93;8.67;;;;;;;;;;5078891;28;20737;-76
2022/10/01 00:32:40;;;;;;;12.93;8.97;;;;;;;;;;5077835;28;20521;-76
2022/10/01 00:35:08;;;;;;;10.53;9.00;;;;;;;;;;5081345;28;20197;-76
2022/10/01 00:37:38;;;;;;;9.17;8.07;;;;;;;;;;5064363;28;20188;-76
2022/10/01 00:40:05;;;;;;;11.47;9.27;;;;;;;;;;5086785;28;20250;-76
2022/10/01 00:42:32;;;;;;;10.10;9.07;;;;;;;;;;5075962;28;20681;-76
2022/10/01 00:45:01;;;;;;;10.57;9.37;;;;;;;;;;5080510;28;20185;-76
2022/10/01 00:47:34;;;;;;;10.07;8.73;;;;;;;;;;5060380;28;20187;-76
2022/10/01 00:50:05;;;;;;;11.70;8.97;;;;;;;;;;5083330;28;20208;-76
2022/10/01 00:52:33;;;;;;;12.87;8.70;;;;;;;;;;5076808;28;20206;-76
2022/10/01 00:55:02;;;;;;;10.57;9.13;;;;;;;;;;5078608;28;20185;-76
2022/10/01 00:57:28;;;;;;;10.83;8.17;;;;;;;;;;5076106;28;20271;-76
2022/10/01 00:59:56;;;;;;;11.17;8.60;;;;;;;;;;5073425;28;20208;-76
2022/10/01 01:02:22;;;;;;;9.63;8.63;;;;;;;;;;5086189;28;20215;-76
2022/10/01 01:04:48;;;;;;;10.90;7.80;;;;;;;;;;5084089;28;20183;-76
2022/10/01 01:07:16;;;;;;;9.93;7.97;;;;;;;;;;5086434;28;20206;-76
2022/10/01 01:09:44;;;;;;;10.33;7.70;;;;;;;;;;5087203;28;20176;-76
2022/10/01 01:12:14;;;;;;;9.00;7.70;;;;;;;;;;5083116;28;20203;-76
2022/10/01 01:15:03;;;;;;;7.97;6.87;;;;;;;;;;5067722;28;20189;-76
2022/10/01 01:17:33;;;;;;;7.93;7.13;;;;;;;;;;5060618;28;20180;-76
2022/10/01 01:19:59;;;;;;;9.90;7.17;;;;;;;;;;5080101;28;20209;-76
2022/10/01 01:22:27;;;;;;;8.77;6.60;;;;;;;;;;5054367;28;20169;-76
2022/10/01 01:25:04;;;;;;;8.40;6.07;;;;;;;;;;5059368;28;20215;-76
2022/10/01 01:27:51;;;;;;;9.83;6.67;;;;;;;;;;5086649;28;20176;-76
2022/10/01 01:30:17;;;;;;;6.77;6.00;;;;;;;;;;5055794;28;20220;-76
2022/10/01 01:33:10;;;;;;;7.10;6.40;;;;;;;;;;5083411;28;20208;-76
2022/10/01 01:35:40;;;;;;;7.03;5.67;;;;;;;;;;5082691;28;20189;-76
2022/10/01 01:38:08;;;;;;;7.73;6.03;;;;;;;;;;5086264;28;20268;-76
2022/10/01 01:40:36;;;;;;;6.87;5.63;;;;;;;;;;5086462;28;20246;-76
2022/10/01 01:43:07;;;;;;;7.43;5.77;;;;;;;;;;5086054;28;20179;-76
2022/10/01 01:45:37;;;;;;;6.90;6.17;;;;;;;;;;5087214;28;20188;-76
2022/10/01 01:48:03;;;;;;;6.93;5.43;;;;;;;;;;5087133;28;20873;-76
2022/10/01 01:50:33;;;;;;;8.80;6.70;;;;;;;;;;5084449;28;20201;-76
2022/10/01 01:52:59;;;;;;;7.90;6.90;;;;;;;;;;5086026;28;20644;-76
2022/10/01 01:55:28;;;;;;;6.93;6.20;;;;;;;;;;5090674;28;20191;-76
2022/10/01 01:57:55;;;;;;;7.80;6.00;;;;;;;;;;5090324;28;20256;-75
2022/10/01 02:00:22;;;;;;;6.57;5.67;;;;;;;;;;5071566;28;20291;-76
2022/10/01 02:02:51;;;;;;;7.00;6.00;;;;;;;;;;5090535;28;20191;-76
2022/10/01 02:05:20;;;;;;;7.80;6.00;;;;;;;;;;5091011;28;20179;-76
2022/10/01 02:07:52;;;;;;;6.37;5.50;;;;;;;;;;5088342;28;20535;-76
2022/10/01 02:10:28;;;;;;;6.50;5.80;;;;;;;;;;5086666;28;20200;-76
2022/10/01 02:13:00;;;;;;;6.70;6.00;;;;;;;;;;5085268;28;20268;-76
2022/10/01 02:15:34;;;;;;;7.30;5.83;;;;;;;;;;5086137;28;20179;-76
2022/10/01 02:18:07;;;;;;;6.70;5.97;;;;;;;;;;5082863;28;20185;-76
2022/10/01 02:20:33;;;;;;;6.13;5.57;;;;;;;;;;5088580;28;20667;-75
2022/10/01 02:23:02;;;;;;;6.37;5.77;;;;;;;;;;5090049;28;20558;-75
2022/10/01 02:25:31;;;;;;;6.70;6.00;;;;;;;;;;5089658;28;20590;-76
2022/10/01 02:28:00;;;;;;;6.90;5.57;;;;;;;;;;5084546;28;20188;-76
2022/10/01 02:30:30;;;;;;;8.43;5.43;;;;;;;;;;5076226;28;20279;-76
2022/10/01 02:32:58;;;;;;;7.70;5.67;;;;;;;;;;5080508;28;20204;-76
2022/10/01 02:35:25;;;;;;;6.63;5.40;;;;;;;;;;5081519;28;20172;-76
2022/10/01 02:37:52;;;;;;;6.07;5.50;;;;;;;;;;5089352;28;20181;-76
2022/10/01 02:40:21;;;;;;;5.90;5.30;;;;;;;;;;5083347;28;20216;-76
2022/10/01 02:42:53;;;;;;;8.73;5.57;;;;;;;;;;5078706;28;20189;-75
2022/10/01 02:45:24;;;;;;;5.57;5.00;;;;;;;;;;5084469;28;20196;-76
2022/10/01 02:47:56;;;;;;;6.13;4.90;;;;;;;;;;5078027;28;20213;-76
2022/10/01 02:50:23;;;;;;;6.30;5.10;;;;;;;;;;5082765;28;20207;-77
2022/10/01 02:52:55;;;;;;;5.63;5.03;;;;;;;;;;5062618;28;20279;-76
2022/10/01 02:55:27;;;;;;;6.17;5.50;;;;;;;;;;5086264;28;20185;-76
2022/10/01 02:57:54;;;;;;;6.13;5.47;;;;;;;;;;5070574;28;20205;-76
2022/10/01 03:00:20;;;;;;;5.73;5.13;;;;;;;;;;5080813;28;20283;-76
2022/10/01 03:02:47;;;;;;;7.90;5.80;;;;;;;;;;5064039;28;20192;-76
2022/10/01 03:05:14;;;;;;;5.50;4.90;;;;;;;;;;5069441;28;20271;-76
2022/10/01 03:07:40;;;;;;;5.40;4.90;;;;;;;;;;5066687;28;20176;-76
2022/10/01 03:10:07;;;;;;;5.73;5.10;;;;;;;;;;5086538;28;20277;-76
2022/10/01 03:12:34;;;;;;;5.47;4.97;;;;;;;;;;5071136;28;20188;-75
2022/10/01 03:15:01;;;;;;;5.30;4.80;;;;;;;;;;5089359;28;20172;-76
2022/10/01 03:17:27;;;;;;;5.70;5.00;;;;;;;;;;5080178;28;20196;-76
2022/10/01 03:19:54;;;;;;;8.07;4.97;;;;;;;;;;5065468;28;20215;-76
2022/10/01 03:22:23;;;;;;;4.97;4.43;;;;;;;;;;5088685;28;20192;-76
2022/10/01 03:24:50;;;;;;;5.27;4.60;;;;;;;;;;5083103;28;20268;-75
2022/10/01 03:27:16;;;;;;;4.67;4.27;;;;;;;;;;5086343;28;20176;-76
2022/10/01 03:29:43;;;;;;;7.20;5.00;;;;;;;;;;5088663;28;20176;-75
2022/10/01 03:32:09;;;;;;;4.57;4.10;;;;;;;;;;5074191;28;20223;-76
2022/10/01 03:34:35;;;;;;;4.50;4.03;;;;;;;;;;5073933;28;20176;-75
2022/10/01 03:37:01;;;;;;;4.83;4.33;;;;;;;;;;5086968;28;20211;-76
2022/10/01 03:39:27;;;;;;;4.30;3.90;;;;;;;;;;5083393;28;20196;-76
2022/10/01 03:41:54;;;;;;;6.20;4.20;;;;;;;;;;5054969;28;20216;-76
2022/10/01 03:44:20;;;;;;;5.43;4.33;;;;;;;;;;5084564;28;20179;-76
2022/10/01 03:46:46;;;;;;;4.60;4.00;;;;;;;;;;5088401;28;20185;-75
2022/10/01 03:49:13;;;;;;;4.80;4.03;;;;;;;;;;5082357;28;20322;-76
2022/10/01 03:51:39;;;;;;;4.13;3.73;;;;;;;;;;5083890;28;20310;-75
2022/10/01 03:54:06;;;;;;;4.63;4.10;;;;;;;;;;5075363;28;20434;-76
2022/10/01 03:56:32;;;;;;;3.83;3.40;;;;;;;;;;5085346;28;20229;-76
2022/10/01 03:58:59;;;;;;;3.87;3.40;;;;;;;;;;5088243;28;20201;-76
2022/10/01 04:01:25;;;;;;;5.30;3.83;;;;;;;;;;5078207;28;20213;-76
2022/10/01 04:03:51;;;;;;;5.33;3.50;;;;;;;;;;5079195;28;20252;-76
2022/10/01 04:06:18;;;;;;;3.50;3.20;;;;;;;;;;5087564;28;20261;-76
2022/10/01 04:08:44;;;;;;;3.93;3.30;;;;;;;;;;5071699;28;20860;-76
2022/10/01 04:11:10;;;;;;;4.13;3.73;;;;;;;;;;5087742;28;20200;-76
2022/10/01 04:13:36;;;;;;;5.43;3.50;;;;;;;;;;5085334;28;20184;-76
2022/10/01 04:16:03;;;;;;;4.67;3.13;;;;;;;;;;5086398;28;20203;-76
2022/10/01 04:18:30;;;;;;;3.63;3.33;;;;;;;;;;5078784;28;20427;-76
2022/10/01 04:20:56;;;;;;;4.87;3.30;;;;;;;;;;5082589;28;20295;-76
2022/10/01 04:23:23;;;;;;;4.17;3.40;;;;;;;;;;5084691;28;20195;-75
2022/10/01 04:25:49;;;;;;;4.03;3.67;;;;;;;;;;5086860;28;20177;-75
2022/10/01 04:28:15;;;;;;;5.73;3.77;;;;;;;;;;5085424;28;20192;-76
2022/10/01 04:30:43;;;;;;;8.57;3.53;;;;;;;;;;5083464;28;20624;-75
2022/10/01 04:33:11;;;;;;;8.13;3.90;;;;;;;;;;5082555;28;20190;-76
2022/10/01 04:35:38;;;;;;;5.60;4.00;;;;;;;;;;5085207;28;20225;-75
2022/10/01 04:38:11;;;;;;;8.27;4.80;;;;;;;;;;5081887;28;20195;-75
2022/10/01 04:40:37;;;;;;;4.80;3.80;;;;;;;;;;5085045;28;20279;-76
2022/10/01 04:43:04;;;;;;;6.53;4.00;;;;;;;;;;5083160;28;20234;-75
2022/10/01 04:45:30;;;;;;;5.47;4.00;;;;;;;;;;5085879;28;20172;-76
2022/10/01 04:47:58;;;;;;;5.07;4.50;;;;;;;;;;5066844;28;20252;-76
2022/10/01 04:50:25;;;;;;;6.40;4.00;;;;;;;;;;5086678;28;20241;-76
2022/10/01 04:52:52;;;;;;;7.57;4.67;;;;;;;;;;5080545;28;20189;-76
2022/10/01 04:55:21;;;;;;;5.60;4.10;;;;;;;;;;5083793;28;20263;-75
2022/10/01 04:57:48;;;;;;;4.77;4.07;;;;;;;;;;5077857;28;20169;-75
2022/10/01 05:00:17;;;;;;;5.37;4.07;;;;;;;;;;5079779;28;20212;-76
2022/10/01 05:02:45;;;;;;;8.37;5.60;;;;;;;;;;5064292;28;20628;-76
2022/10/01 05:05:11;;;;;;;6.20;4.10;;;;;;;;;;5082914;28;20176;-75
2022/10/01 05:07:38;;;;;;;4.27;3.67;;;;;;;;;;5071341;28;20267;-76
2022/10/01 05:10:04;;;;;;;6.50;4.40;;;;;;;;;;5081043;28;20200;-76
2022/10/01 05:12:31;;;;;;;4.93;4.00;;;;;;;;;;5081741;28;20686;-76
2022/10/01 05:14:57;;;;;;;5.23;4.00;;;;;;;;;;5070753;28;20181;-75
2022/10/01 05:17:23;;;;;;;4.33;3.93;;;;;;;;;;5085098;28;20180;-76
2022/10/01 05:19:49;;;;;;;4.67;3.50;;;;;;;;;;5079525;28;20257;-76
2022/10/01 05:22:16;;;;;;;6.37;3.70;;;;;;;;;;5065289;28;20223;-75
2022/10/01 05:24:42;;;;;;;6.07;3.83;;;;;;;;;;5066199;28;20185;-76
2022/10/01 05:27:11;;;;;;;4.43;3.93;;;;;;;;;;5061957;28;20191;-75
2022/10/01 05:29:37;;;;;;;4.67;4.00;;;;;;;;;;5090406;28;20234;-76
2022/10/01 05:32:03;;;;;;;4.77;3.83;;;;;;;;;;5088049;28;20206;-75
2022/10/01 05:34:29;;;;;;;5.37;3.70;;;;;;;;;;5073591;28;20226;-76
2022/10/01 05:37:17;;;;;;;5.10;3.90;;;;;;;;;;5089124;28;20206;-75
2022/10/01 05:39:43;;;;;;;4.87;3.57;;;;;;;;;;5087295;28;20204;-74
2022/10/01 05:42:09;;;;;;;4.70;3.83;;;;;;;;;;5091044;28;20181;-75
2022/10/01 05:44:36;;;;;;;6.87;3.80;;;;;;;;;;5082559;28;20645;-74
2022/10/01 05:47:06;;;;;;;5.93;4.30;;;;;;;;;;5088864;28;20189;-74
2022/10/01 05:49:32;;;;;;;4.63;3.80;;;;;;;;;;5062834;28;20185;-75
2022/10/01 05:51:59;;;;;;;4.13;3.73;;;;;;;;;;5067237;28;20185;-74
2022/10/01 05:54:28;;;;;;;5.77;3.93;;;;;;;;;;5085433;28;20915;-75
2022/10/01 05:56:54;;;;;;;4.37;3.60;;;;;;;;;;5084965;28;20208;-74
2022/10/01 05:59:20;;;;;;;7.70;3.93;;;;;;;;;;5087529;28;20204;-74
2022/10/01 06:01:46;;;;;;;6.27;3.23;;;;;;;;;;5088774;28;20204;-75
2022/10/01 06:04:13;;;;;;;5.80;4.43;;;;;;;;;;5084287;28;20203;-76
2022/10/01 06:06:39;;;;;;;4.07;3.67;;;;;;;;;;5088114;28;20667;-75
2022/10/01 06:09:05;;;;;;;5.17;3.70;;;;;;;;;;5085200;28;20215;-75
2022/10/01 06:11:31;;;;;;;4.13;3.73;;;;;;;;;;5083753;28;20197;-81
2022/10/01 06:13:57;;;;;;;6.10;3.33;;;;;;;;;;5088213;28;20184;-83
2022/10/01 06:16:23;;;;;;;4.40;3.30;;;;;;;;;;5042673;28;20294;-78
2022/10/01 06:18:56;;;;;;;4.13;3.70;;;;;;;;;;5087806;28;20208;-75
2022/10/01 06:21:22;;;;;;;3.90;3.57;;;;;;;;;;5063213;28;20310;-74
2022/10/01 06:23:49;;;;;;;8.03;3.70;;;;;;;;;;5078096;28;20243;-74
2022/10/01 06:26:15;;;;;;;3.40;3.10;;;;;;;;;;5078807;28;20188;-74
2022/10/01 06:28:41;;;;;;;3.90;3.53;;;;;;;;;;5080254;28;20272;-74
2022/10/01 06:31:07;;;;;;;4.20;3.80;;;;;;;;;;5077522;28;20655;-76
2022/10/01 06:33:34;;;;;;;4.70;3.67;;;;;;;;;;5080327;28;20656;-74
2022/10/01 06:36:00;;;;;;;5.27;3.40;;;;;;;;;;5079343;28;20222;-74
2022/10/01 06:38:27;;;;;;;5.23;3.40;;;;;;;;;;5076692;28;21037;-74
2022/10/01 06:40:54;;;;;;;3.50;3.20;;;;;;;;;;5078715;28;20204;-74
2022/10/01 06:43:20;;;;;;;3.63;3.33;;;;;;;;;;5079726;28;20168;-74
2022/10/01 06:45:46;;;;;;;4.90;3.57;;;;;;;;;;5080646;28;20171;-76
2022/10/01 06:48:13;;;;;;;5.50;3.23;;;;;;;;;;5079853;28;20260;-76
2022/10/01 06:50:40;;;;;;;4.73;3.43;;;;;;;;;;5062415;28;20197;-74
2022/10/01 06:53:07;;;;;;;5.93;3.33;;;;;;;;;;5077753;28;20640;-73
2022/10/01 06:55:34;;;;;;;3.60;3.17;;;;;;;;;;5079523;28;20259;-74
2022/10/01 06:58:01;;;;;;;4.80;3.53;;;;;;;;;;5078423;28;20169;-74
2022/10/01 07:00:29;;;;;;;5.20;3.83;;;;;;;;;;5079436;28;20269;-75
2022/10/01 07:02:55;;;;;;;3.70;3.40;;;;;;;;;;5061190;28;20211;-74
2022/10/01 07:05:22;;;;;;;4.20;3.80;;;;;;;;;;5078100;28;20246;-73
2022/10/01 07:07:48;;;;;;;4.37;3.33;;;;;;;;;;5078163;28;20262;-73
2022/10/01 07:10:15;;;;;;;3.87;3.40;;;;;;;;;;5079753;28;20223;-74
2022/10/01 07:12:41;;;;;;;4.23;3.37;;;;;;;;;;5075263;28;20267;-74
2022/10/01 07:15:08;;;;;;;4.57;3.23;;;;;;;;;;5076573;28;20180;-75
2022/10/01 07:17:42;;;;;;;5.27;3.27;;;;;;;;;;5059715;28;20181;-76
2022/10/01 07:20:08;;;;;;;4.27;3.43;;;;;;;;;;5078310;28;20209;-74
2022/10/01 07:22:35;;;;;;;5.00;3.23;;;;;;;;;;5077135;28;20643;-75
2022/10/01 07:25:01;;;;;;;4.00;3.60;;;;;;;;;;5078838;28;20183;-73
2022/10/01 07:27:28;;;;;;;6.13;3.60;;;;;;;;;;5060527;28;20185;-73
2022/10/01 07:29:57;;;;;;;3.93;3.53;;;;;;;;;;5086957;28;20622;-73
2022/10/01 07:32:24;;;;;;;4.40;3.40;;;;;;;;;;5061777;28;20574;-74
2022/10/01 07:34:51;;;;;;;3.90;3.60;;;;;;;;;;5064667;28;20216;-73
2022/10/01 07:37:17;;;;;;;4.43;3.33;;;;;;;;;;5067994;28;20231;-74
2022/10/01 07:39:43;;;;;;;6.03;3.23;;;;;;;;;;5085711;28;20211;-73
2022/10/01 07:42:10;;;;;;;4.43;3.70;;;;;;;;;;5078922;28;20189;-73
2022/10/01 07:44:36;;;;;;;5.60;3.40;;;;;;;;;;5081688;28;20226;-74
2022/10/01 07:47:02;;;;;;;4.07;3.67;;;;;;;;;;5083565;28;20660;-73
2022/10/01 07:49:29;;;;;;;5.93;3.30;;;;;;;;;;5071005;28;20276;-74
2022/10/01 07:51:57;;;;;;;5.63;3.90;;;;;;;;;;5077013;28;20201;-74
2022/10/01 07:54:24;;;;;;;5.40;4.13;;;;;;;;;;5060806;28;20181;-74
2022/10/01 07:56:54;;;;;;;6.87;6.17;;;;;;;;;;5077762;28;20267;-73
2022/10/01 07:59:25;;;;;;;9.23;4.30;;;;;;;;;;5084396;28;20216;-73
2022/10/01 08:01:51;;;;;;;7.80;3.83;;;;;;;;;;5082312;28;20279;-73
2022/10/01 08:07:04;;;;;;;5.73;3.83;;;;;;;;;;5078471;28;20181;-75
2022/10/01 08:09:30;;;;;;;3.97;3.67;;;;;;;;;;5072842;28;20181;-73
2022/10/01 08:11:57;;;;;;;4.43;3.70;;;;;;;;;;5075588;28;20201;-76
2022/10/01 08:14:23;;;;;;;6.30;4.10;;;;;;;;;;5072200;28;20181;-74
2022/10/01 08:16:49;;;;;;;3.60;3.30;;;;;;;;;;5074621;28;20180;-73
2022/10/01 08:19:15;;;;;;;4.83;3.60;;;;;;;;;;5079651;28;20663;-74
2022/10/01 08:21:42;;;;;;;4.23;3.30;;;;;;;;;;5078562;28;20274;-73
2022/10/01 08:24:08;;;;;;;4.33;3.67;;;;;;;;;;5076349;28;20180;-73
2022/10/01 08:26:34;;;;;;;4.63;3.63;;;;;;;;;;5071594;28;20185;-73
2022/10/01 08:29:01;;;;;;;3.90;3.60;;;;;;;;;;5077732;28;20484;-73
2022/10/01 08:31:27;;;;;;;6.10;3.87;;;;;;;;;;5077307;28;20831;-74
2022/10/01 08:33:54;;;;;;;3.27;2.97;;;;;;;;;;5060398;28;20197;-74
2022/10/01 08:36:20;;;;;;;5.70;3.83;;;;;;;;;;5080306;28;20212;-74
2022/10/01 08:38:47;;;;;;;5.23;3.53;;;;;;;;;;5061091;28;20201;-74
2022/10/01 08:41:22;;;;;;;6.23;3.43;;;;;;;;;;5075155;28;20675;-74
2022/10/01 08:43:50;;;;;;;5.63;3.70;;;;;;;;;;5078386;28;20191;-75
2022/10/01 08:46:18;;;;;;;4.67;3.77;;;;;;;;;;5074853;28;20180;-74
2022/10/01 08:49:03;;;;;;;5.90;3.80;;;;;;;;;;5079551;28;20219;-75
2022/10/01 08:51:46;;;;;;;4.93;3.60;;;;;;;;;;5074329;28;20687;-73
2022/10/01 08:54:31;;;;;;;4.10;3.40;;;;;;;;;;5075685;28;20606;-74
2022/10/01 08:57:00;;;;;;;5.17;3.17;;;;;;;;;;5077390;28;20172;-74
2022/10/01 08:59:35;;;;;;;3.50;3.00;;;;;;;;;;5070372;28;21070;-73
2022/10/01 09:02:01;;;;;;;4.33;3.30;;;;;;;;;;5075387;28;20550;-74
2022/10/01 09:04:28;;;;;;;3.37;3.07;;;;;;;;;;5078538;28;20180;-73
2022/10/01 09:06:59;;;;;;;3.50;3.20;;;;;;;;;;5078330;28;20187;-74
2022/10/01 09:09:25;;;;;;;3.77;3.10;;;;;;;;;;5079885;28;20184;-74
2022/10/01 09:12:04;;;;;;;4.53;3.10;;;;;;;;;;5079304;28;20204;-73
2022/10/01 09:14:30;;;;;;;3.63;3.30;;;;;;;;;;5078208;28;20288;-74
2022/10/01 09:17:19;;;;;;;5.30;3.30;;;;;;;;;;5072561;28;20216;-73
2022/10/01 09:19:53;;;;;;;3.70;3.30;;;;;;;;;;5076828;28;20211;-73
2022/10/01 09:22:28;;;;;;;3.60;3.30;;;;;;;;;;5075897;28;20206;-73
2022/10/01 09:25:21;;;;;;;4.93;3.10;;;;;;;;;;5079192;28;20317;-73
2022/10/01 09:27:47;;;;;;;4.97;3.23;;;;;;;;;;5073476;28;20203;-73
2022/10/01 09:30:15;;;;;;;3.50;3.20;;;;;;;;;;5061695;28;20204;-73
2022/10/01 09:32:50;;;;;;;2.90;2.60;;;;;;;;;;5079830;28;20216;-73
2022/10/01 09:35:25;;;;;;;3.23;2.90;;;;;;;;;;5079941;28;20754;-73
2022/10/01 09:37:55;;;;;;;3.07;2.77;;;;;;;;;;5078976;28;20198;-73
2022/10/01 09:40:37;;;;;;;3.53;3.00;;;;;;;;;;5078466;28;20216;-73
2022/10/01 09:43:06;;;;;;;3.60;2.90;;;;;;;;;;5077806;28;20582;-73
2022/10/01 09:45:33;;;;;;;2.90;2.70;;;;;;;;;;5079683;28;20169;-73
2022/10/01 09:48:20;;;;;;;3.27;2.97;;;;;;;;;;5079501;28;20259;-73
2022/10/01 09:50:54;;;;;;;3.40;3.10;;;;;;;;;;5028032;28;20221;-73
2022/10/01 09:53:23;;;;;;;4.17;3.27;;;;;;;;;;5078978;28;20694;-73
2022/10/01 09:55:55;;;;;;;2.87;2.67;;;;;;;;;;5082143;28;20188;-73
2022/10/01 09:58:23;;;;;;;4.20;2.43;;;;;;;;;;5080322;28;20693;-74
2022/10/01 10:00:52;;;;;;;3.80;2.67;;;;;;;;;;5080218;28;20212;-73
2022/10/01 10:03:22;;;;;;;3.70;3.00;;;;;;;;;;5080638;28;20230;-73
2022/10/01 10:05:49;;;;;;;2.90;2.60;;;;;;;;;;5080504;28;20222;-73
2022/10/01 10:08:25;;;;;;;3.10;2.70;;;;;;;;;;5080791;28;20204;-73
2022/10/01 10:10:57;;;;;;;3.37;2.80;;;;;;;;;;5081587;28;20204;-73
2022/10/01 10:13:33;;;;;;;2.93;2.63;;;;;;;;;;5079246;28;20169;-73
2022/10/01 10:16:06;;;;;;;2.60;2.40;;;;;;;;;;5077970;28;20249;-73
2022/10/01 10:18:34;;;;;;;2.83;2.63;;;;;;;;;;5079166;28;20208;-73
2022/10/01 10:21:24;;;;;;;3.20;2.43;;;;;;;;;;5079436;28;20677;-74
2022/10/01 10:23:52;;;;;;;3.70;2.87;;;;;;;;;;5069011;28;20686;-74
2022/10/01 10:26:20;;;;;;;3.87;2.50;;;;;;;;;;5078811;28;20628;-74
2022/10/01 10:28:46;;;;;;;3.90;2.67;;;;;;;;;;5080345;28;20779;-73
2022/10/01 10:31:18;;;;;;;2.77;2.37;;;;;;;;;;5082526;28;20270;-74
2022/10/01 10:33:49;;;;;;;3.93;2.90;;;;;;;;;;5080664;28;20190;-73
2022/10/01 10:36:16;;;;;;;2.50;2.30;;;;;;;;;;5078780;28;20189;-74
2022/10/01 10:38:45;;;;;;;5.60;2.43;;;;;;;;;;5058834;28;20695;-77
2022/10/01 10:41:18;;;;;;;2.50;2.23;;;;;;;;;;5075996;28;20625;-76
2022/10/01 10:43:47;;;;;;;3.30;2.40;;;;;;;;;;5080920;28;20246;-78
2022/10/01 10:46:21;;;;;;;2.93;2.30;;;;;;;;;;5072191;28;20184;-81
2022/10/01 10:48:50;;;;;;;2.30;2.10;;;;;;;;;;5092322;28;20205;-80
2022/10/01 10:51:16;;;;;;;2.60;2.40;;;;;;;;;;5073362;28;20219;-78
2022/10/01 10:53:44;;;;;;;2.33;2.13;;;;;;;;;;5090929;28;20263;-77
2022/10/01 10:56:21;;;;;;;2.20;2.00;;;;;;;;;;5090421;28;20586;-77
2022/10/01 10:58:48;;;;;;;2.57;2.37;;;;;;;;;;5083684;28;20207;-77
2022/10/01 11:01:16;;;;;;;3.13;2.13;;;;;;;;;;5082566;28;20215;-79
2022/10/01 11:04:03;;;;;;;2.73;2.20;;;;;;;;;;5083726;28;20179;-75
2022/10/01 11:06:29;;;;;;;3.47;2.53;;;;;;;;;;5079888;28;20196;-77
2022/10/01 11:09:05;;;;;;;2.80;2.30;;;;;;;;;;5091765;28;20184;-78
2022/10/01 11:11:35;;;;;;;4.23;2.27;;;;;;;;;;5071788;28;20200;-79
2022/10/01 11:14:21;;;;;;;3.00;2.33;;;;;;;;;;5095313;28;20222;-78
2022/10/01 11:16:53;;;;;;;2.53;2.30;;;;;;;;;;5071784;28;20549;-78
2022/10/01 11:19:32;;;;;;;2.37;2.10;;;;;;;;;;5092134;28;20298;-78
2022/10/01 11:21:58;;;;;;;2.50;2.30;;;;;;;;;;5059004;28;20243;-78
2022/10/01 11:24:39;;;;;;;2.87;2.33;;;;;;;;;;5096775;28;20200;-78
2022/10/01 11:27:17;;;;;;;2.43;2.13;;;;;;;;;;5050679;28;20185;-78
2022/10/01 11:29:43;;;;;;;2.70;1.93;;;;;;;;;;5091696;28;20183;-78
2022/10/01 11:32:18;;;;;;;2.97;2.27;;;;;;;;;;5087903;28;20181;-78
2022/10/01 11:34:56;;;;;;;2.60;2.07;;;;;;;;;;5063669;28;20228;-78
2022/10/01 11:37:46;;;;;;;2.50;2.30;;;;;;;;;;5030053;28;20202;-77
2022/10/01 11:40:23;;;;;;;2.40;2.20;;;;;;;;;;5080190;28;20771;-80
2022/10/01 11:42:51;;;;;;;2.00;1.80;;;;;;;;;;5081731;28;20688;-80
2022/10/01 11:45:20;;;;;;;2.97;1.90;;;;;;;;;;5064225;28;20177;-75
2022/10/01 11:47:50;;;;;;;2.10;1.90;;;;;;;;;;5076550;28;20184;-74
2022/10/01 11:50:35;;;;;;;5.63;5.00;;;;;;;;;;5078699;28;20291;-77
2022/10/01 11:53:12;;;;;;;2.80;2.50;;;;;;;;;;5077779;28;20184;-75
2022/10/01 11:58:49;;;;;;;2.50;2.07;;;;;;;;;;5078114;28;20671;-75
2022/10/01 12:01:20;;;;;;;3.47;3.17;;;;;;;;;;5076607;28;20231;-75
2022/10/01 12:03:52;;;;;;;3.70;1.83;;;;;;;;;;5078296;28;20181;-75
2022/10/01 12:06:28;;;;;;;2.17;1.80;;;;;;;;;;5078750;28;20336;-75
2022/10/01 12:09:14;;;;;;;3.00;1.97;;;;;;;;;;5078271;28;20189;-75
2022/10/01 12:11:45;;;;;;;1.70;1.60;;;;;;;;;;5021138;28;20291;-75
2022/10/01 12:14:20;;;;;;;2.87;2.57;;;;;;;;;;5080339;28;20185;-77
2022/10/01 12:16:49;;;;;;;2.47;1.60;;;;;;;;;;5059831;28;20185;-76
2022/10/01 12:19:16;;;;;;;3.03;2.20;;;;;;;;;;5077389;28;20213;-76
2022/10/01 12:21:45;;;;;;;2.10;1.80;;;;;;;;;;5077551;28;20200;-75
2022/10/01 12:24:41;;;;;;;6.27;5.20;;;;;;;;;;5074650;28;20183;-77
2022/10/01 12:27:26;;;;;;;2.20;2.00;;;;;;;;;;5054233;28;20199;-74
2022/10/01 12:30:02;;;;;;;2.30;1.80;;;;;;;;;;5075665;28;20185;-74
2022/10/01 12:32:48;;;;;;;1.57;1.47;;;;;;;;;;5081009;28;20212;-74
2022/10/01 12:35:34;;;;;;;1.60;1.50;;;;;;;;;;5078928;28;20779;-74
2022/10/01 12:38:00;;;;;;;1.60;1.50;;;;;;;;;;5070409;28;20216;-74
2022/10/01 12:40:46;;;;;;;2.43;1.67;;;;;;;;;;5070365;28;20204;-74
2022/10/01 12:43:33;;;;;;;5.10;1.97;;;;;;;;;;5086427;28;20169;-73
2022/10/01 12:46:01;;;;;;;3.20;1.90;;;;;;;;;;5076591;28;20184;-74
2022/10/01 12:48:34;;;;;;;1.93;1.70;;;;;;;;;;5072303;28;20177;-74
2022/10/01 12:51:13;;;;;;;3.03;1.97;;;;;;;;;;5062059;28;20700;-73
2022/10/01 12:53:39;;;;;;;1.67;1.53;;;;;;;;;;5084993;28;20172;-73
2022/10/01 12:56:29;;;;;;;2.43;1.80;;;;;;;;;;5084885;28;20176;-73
2022/10/01 12:59:05;;;;;;;1.73;1.63;;;;;;;;;;5079567;28;20650;-73
2022/10/01 13:01:50;;;;;;;2.03;1.60;;;;;;;;;;5077325;28;20214;-73
2022/10/01 13:04:31;;;;;;;2.10;1.90;;;;;;;;;;5068513;28;20227;-73
2022/10/01 13:07:17;;;;;;;1.77;1.67;;;;;;;;;;5050274;28;20580;-73
2022/10/01 13:09:52;;;;;;;2.80;1.87;;;;;;;;;;5068234;28;20246;-73
2022/10/01 13:12:21;;;;;;;2.87;2.20;;;;;;;;;;5073111;28;20189;-74
2022/10/01 13:14:47;;;;;;;1.87;1.77;;;;;;;;;;5078040;28;21051;-74
2022/10/01 13:17:21;;;;;;;1.97;1.77;;;;;;;;;;5085667;28;20224;-77
2022/10/01 13:19:50;;;;;;;2.97;1.73;;;;;;;;;;5085915;28;20240;-74
2022/10/01 13:22:24;;;;;;;1.80;1.70;;;;;;;;;;5076609;28;20640;-74
2022/10/01 13:24:50;;;;;;;1.80;1.70;;;;;;;;;;5069233;28;20243;-74
2022/10/01 13:27:35;;;;;;;2.13;1.70;;;;;;;;;;5084177;28;20188;-74
2022/10/01 13:30:06;;;;;;;3.63;1.80;;;;;;;;;;5082830;28;20566;-74
2022/10/01 13:32:51;;;;;;;4.40;1.87;;;;;;;;;;5079603;28;20634;-74
2022/10/01 13:35:20;;;;;;;2.50;1.63;;;;;;;;;;5080760;28;20181;-74
2022/10/01 13:37:46;;;;;;;1.90;1.80;;;;;;;;;;5074612;28;20729;-74
2022/10/01 13:40:23;;;;;;;2.53;1.73;;;;;;;;;;5077848;28;20862;-75
2022/10/01 13:42:50;;;;;;;2.10;1.70;;;;;;;;;;5079843;28;20189;-74
2022/10/01 13:45:39;;;;;;;3.30;1.73;;;;;;;;;;5075692;28;20978;-75
2022/10/01 13:48:22;;;;;;;3.47;1.90;;;;;;;;;;5089275;28;20172;-77
2022/10/01 13:51:09;;;;;;;2.70;1.90;;;;;;;;;;5088921;28;20201;-75
2022/10/01 13:53:48;;;;;;;3.83;1.70;;;;;;;;;;5087164;28;20738;-75
2022/10/01 13:56:29;;;;;;;3.33;1.67;;;;;;;;;;5082117;28;20254;-75
2022/10/01 13:58:55;;;;;;;2.13;1.60;;;;;;;;;;5089320;28;20197;-75
2022/10/01 14:01:22;;;;;;;2.63;1.50;;;;;;;;;;5072801;28;20212;-75
2022/10/01 14:03:48;;;;;;;1.83;1.60;;;;;;;;;;5082888;28;20173;-75
2022/10/01 14:06:22;;;;;;;2.60;1.77;;;;;;;;;;5073668;28;20185;-75
2022/10/01 14:08:52;;;;;;;1.50;1.40;;;;;;;;;;5091970;28;20263;-75
2022/10/01 14:16:55;;;;;;;2.57;2.00;;;;;;;;;;5086309;28;20271;-75
2022/10/01 14:19:23;;;;;;;1.63;1.50;;;;;;;;;;5082394;28;20208;-75
2022/10/01 14:22:12;;;;;;;2.00;1.57;;;;;;;;;;5071561;28;20668;-75
2022/10/01 14:24:41;;;;;;;3.13;1.70;;;;;;;;;;5071314;28;20181;-75
2022/10/01 14:27:15;;;;;;;2.87;1.60;;;;;;;;;;5082824;28;20683;-75
2022/10/01 14:29:48;;;;;;;1.60;1.40;;;;;;;;;;5071009;28;20188;-75
2022/10/01 14:32:33;;;;;;;2.23;1.87;;;;;;;;;;5062351;28;20268;-75
2022/10/01 14:34:59;;;;;;;2.73;1.53;;;;;;;;;;5085218;28;20939;-75
2022/10/01 14:37:26;;;;;;;2.63;1.80;;;;;;;;;;5088323;28;20226;-75
2022/10/01 14:40:06;;;;;;;3.27;1.73;;;;;;;;;;5071052;28;20255;-75
2022/10/01 14:42:32;;;;;;;5.53;2.10;;;;;;;;;;5073495;28;20706;-75
2022/10/01 14:44:58;;;;;;;4.57;1.80;;;;;;;;;;5058038;28;20269;-75
2022/10/01 14:47:26;;;;;;;2.67;1.70;;;;;;;;;;5070638;28;20700;-75
2022/10/01 14:49:53;;;;;;;3.80;1.87;;;;;;;;;;5069553;28;20815;-75
2022/10/01 14:52:22;;;;;;;1.80;1.23;;;;;;;;;;5069024;28;20686;-75
2022/10/01 14:54:50;;;;;;;2.33;1.57;;;;;;;;;;5051689;28;20174;-75
2022/10/01 14:57:30;;;;;;;3.00;1.53;;;;;;;;;;5068362;28;20174;-75
2022/10/01 14:59:58;;;;;;;4.70;1.47;;;;;;;;;;5052368;28;20224;-75
2022/10/01 15:02:25;;;;;;;4.47;1.33;;;;;;;;;;5059038;28;20184;-75
2022/10/01 15:04:53;;;;;;;2.77;1.70;;;;;;;;;;5077865;28;20178;-75
2022/10/01 15:07:19;;;;;;;1.93;1.30;;;;;;;;;;5077560;28;20250;-75
2022/10/01 15:09:46;;;;;;;3.77;1.50;;;;;;;;;;5075152;28;20219;-75
2022/10/01 15:12:13;;;;;;;3.27;1.27;;;;;;;;;;5069036;28;20181;-75